sensor_id;sensor_type;location;lat;lon;timestamp;pressure;altitude;pressure_sealevel;temperature;humidity
4528;BME280;62320;51.520;6.818;2022-11-21T00:09:19;100044.84;;;4.33;99.89
4528;BME280;62320;51.520;6.818;2022-11-21T00:19:21;100049.72;;;4.17;100.00
4528;BME280;62320;51.520;6.818;2022-11-21T00:29:22;100048.09;;;4.22;100.00
4528;BME280;62320;51.520;6.818;2022-11-21T00:39:24;100035.97;;;4.10;100.00
4528;BME280;62320;51.520;6.818;2022-11-21T00:49:26;100052.16;;;4.09;100.00
4528;BME280;62320;51.520;6.818;2022-11-21T00:59:27;100056.38;;;4.07;100.00
4528;BME280;62320;51.520;6.818;2022-11-21T01:09:28;100061.44;;;4.04;100.00
4528;BME280;62320;51.520;6.818;2022-11-21T01:19:30;100061.44;;;4.04;100.00
4528;BME280;62320;51.520;6.818;2022-11-21T01:29:32;100048.44;;;3.91;100.00
4528;BME280;62320;51.520;6.818;2022-11-21T01:39:33;100063.72;;;3.85;100.00
4528;BME280;62320;51.520;6.818;2022-11-21T01:49:34;100069.63;;;3.81;100.00
4528;BME280;62320;51.520;6.818;2022-11-21T01:59:53;100066.25;;;3.85;100.00
4528;BME280;62320;51.520;6.818;2022-11-21T02:09:58;100059.97;;;3.63;100.00
4528;BME280;62320;51.520;6.818;2022-11-21T02:20:04;100064.19;;;3.61;100.00
4528;BME280;62320;51.520;6.818;2022-11-21T02:30:08;100084.75;;;3.67;100.00
4528;BME280;62320;51.520;6.818;2022-11-21T02:40:22;100086.13;;;3.48;100.00
4528;BME280;62320;51.520;6.818;2022-11-21T02:50:59;100083.94;;;3.71;100.00
4528;BME280;62320;51.520;6.818;2022-11-21T03:00:54;100088.25;;;3.72;100.00
4528;BME280;62320;51.520;6.818;2022-11-21T03:10:55;100079.59;;;3.66;100.00
4528;BME280;62320;51.520;6.818;2022-11-21T03:20:57;100090.19;;;3.37;100.00
4528;BME280;62320;51.520;6.818;2022-11-21T03:30:58;100077.41;;;3.39;100.00
4528;BME280;62320;51.520;6.818;2022-11-21T03:41:04;100081.03;;;3.50;100.00
4528;BME280;62320;51.520;6.818;2022-11-21T03:51:06;100071.56;;;3.44;100.00
4528;BME280;62320;51.520;6.818;2022-11-21T04:01:07;100070.78;;;3.50;100.00
4528;BME280;62320;51.520;6.818;2022-11-21T04:11:09;100061.53;;;3.55;100.00
4528;BME280;62320;51.520;6.818;2022-11-21T04:21:10;100074.28;;;3.55;100.00
4528;BME280;62320;51.520;6.818;2022-11-21T04:31:12;100076.97;;;3.61;100.00
4528;BME280;62320;51.520;6.818;2022-11-21T04:41:13;100063.41;;;3.67;100.00
4528;BME280;62320;51.520;6.818;2022-11-21T04:51:15;100057.50;;;3.71;100.00
4528;BME280;62320;51.520;6.818;2022-11-21T05:01:16;100056.69;;;3.70;100.00
4528;BME280;62320;51.520;6.818;2022-11-21T05:11:17;100061.81;;;3.73;100.00
4528;BME280;62320;51.520;6.818;2022-11-21T05:21:37;100052.59;;;3.81;100.00
4528;BME280;62320;51.520;6.818;2022-11-21T05:31:39;100068.84;;;3.86;100.00
4528;BME280;62320;51.520;6.818;2022-11-21T05:41:41;100059.41;;;3.81;100.00
4528;BME280;62320;51.520;6.818;2022-11-21T05:51:42;100061.16;;;3.83;100.00
4528;BME280;62320;51.520;6.818;2022-11-21T06:01:43;100052.63;;;3.84;100.00
4528;BME280;62320;51.520;6.818;2022-11-21T06:12:11;100037.34;;;3.89;100.00
4528;BME280;62320;51.520;6.818;2022-11-21T06:22:12;100030.47;;;3.86;100.00
4528;BME280;62320;51.520;6.818;2022-11-21T06:32:13;100005.88;;;3.93;100.00
4528;BME280;62320;51.520;6.818;2022-11-21T06:42:15;100020.38;;;3.94;99.70
4528;BME280;62320;51.520;6.818;2022-11-21T06:52:17;100014.56;;;4.04;100.00
4528;BME280;62320;51.520;6.818;2022-11-21T07:02:18;100021.38;;;4.05;100.00
4528;BME280;62320;51.520;6.818;2022-11-21T07:12:19;100011.38;;;4.20;100.00
4528;BME280;62320;51.520;6.818;2022-11-21T07:22:39;100022.44;;;4.20;100.00
4528;BME280;62320;51.520;6.818;2022-11-21T07:32:40;100012.25;;;4.22;100.00
4528;BME280;62320;51.520;6.818;2022-11-21T07:42:42;99998.78;;;4.33;100.00
4528;BME280;62320;51.520;6.818;2022-11-21T07:52:43;100000.47;;;4.34;100.00
4528;BME280;62320;51.520;6.818;2022-11-21T08:02:45;100003.94;;;4.38;99.35
4528;BME280;62320;51.520;6.818;2022-11-21T08:12:46;99992.88;;;4.41;100.00
4528;BME280;62320;51.520;6.818;2022-11-21T08:22:48;99973.28;;;4.44;99.04
4528;BME280;62320;51.520;6.818;2022-11-21T08:32:49;99975.13;;;4.54;99.03
4528;BME280;62320;51.520;6.818;2022-11-21T08:42:57;99970.91;;;4.59;100.00
4528;BME280;62320;51.520;6.818;2022-11-21T08:53:00;99971.88;;;4.69;100.00
4528;BME280;62320;51.520;6.818;2022-11-21T09:03:05;99973.66;;;4.77;100.00
4528;BME280;62320;51.520;6.818;2022-11-21T09:13:06;99965.28;;;4.90;100.00
4528;BME280;62320;51.520;6.818;2022-11-21T09:23:10;99957.69;;;5.01;100.00
4528;BME280;62320;51.520;6.818;2022-11-21T09:33:13;99940.66;;;5.07;100.00
4528;BME280;62320;51.520;6.818;2022-11-21T09:54:03;99937.47;;;5.31;100.00
4528;BME280;62320;51.520;6.818;2022-11-21T10:04:05;99904.09;;;5.27;99.63
4528;BME280;62320;51.520;6.818;2022-11-21T10:24:37;99883.75;;;5.49;100.00
4528;BME280;62320;51.520;6.818;2022-11-21T10:34:39;99870.22;;;5.77;100.00
4528;BME280;62320;51.520;6.818;2022-11-21T10:44:41;99861.78;;;6.00;100.00
4528;BME280;62320;51.520;6.818;2022-11-21T11:05:19;99815.72;;;6.46;100.00
4528;BME280;62320;51.520;6.818;2022-11-21T11:15:23;99798.59;;;6.68;100.00
4528;BME280;62320;51.520;6.818;2022-11-21T11:25:25;99784.91;;;6.80;100.00
4528;BME280;62320;51.520;6.818;2022-11-21T11:35:28;99768.59;;;7.06;100.00
4528;BME280;62320;51.520;6.818;2022-11-21T11:45:47;99745.44;;;7.22;100.00
4528;BME280;62320;51.520;6.818;2022-11-21T11:56:15;99730.81;;;7.34;100.00
4528;BME280;62320;51.520;6.818;2022-11-21T12:06:21;99716.19;;;7.45;100.00
4528;BME280;62320;51.520;6.818;2022-11-21T12:16:44;99717.06;;;7.49;100.00
4528;BME280;62320;51.520;6.818;2022-11-21T12:37:07;99679.22;;;7.67;100.00
4528;BME280;62320;51.520;6.818;2022-11-21T12:47:37;99654.31;;;7.75;100.00
4528;BME280;62320;51.520;6.818;2022-11-21T12:58:19;99631.19;;;7.71;100.00
4528;BME280;62320;51.520;6.818;2022-11-21T13:08:31;99613.16;;;7.71;100.00
4528;BME280;62320;51.520;6.818;2022-11-21T13:18:41;99608.91;;;7.70;100.00
4528;BME280;62320;51.520;6.818;2022-11-21T13:28:45;99588.31;;;7.70;100.00
4528;BME280;62320;51.520;6.818;2022-11-21T13:48:59;99549.72;;;7.71;100.00
4528;BME280;62320;51.520;6.818;2022-11-21T13:59:26;99523.09;;;7.75;100.00
4528;BME280;62320;51.520;6.818;2022-11-21T14:09:34;99516.22;;;7.79;100.00
4528;BME280;62320;51.520;6.818;2022-11-21T14:19:39;99496.53;;;7.73;100.00
4528;BME280;62320;51.520;6.818;2022-11-21T14:29:41;99463.94;;;7.71;100.00
4528;BME280;62320;51.520;6.818;2022-11-21T14:39:43;99418.69;;;7.53;98.99
4528;BME280;62320;51.520;6.818;2022-11-21T14:49:50;99409.31;;;7.46;99.27
4528;BME280;62320;51.520;6.818;2022-11-21T14:59:54;99393.03;;;7.47;99.78
4528;BME280;62320;51.520;6.818;2022-11-21T15:09:56;99383.66;;;7.39;99.94
4528;BME280;62320;51.520;6.818;2022-11-21T15:20:18;99362.41;;;7.20;99.46
4528;BME280;62320;51.520;6.818;2022-11-21T15:30:23;99330.78;;;7.15;99.75
4528;BME280;62320;51.520;6.818;2022-11-21T15:40:24;99311.97;;;7.10;99.60
4528;BME280;62320;51.520;6.818;2022-11-21T15:50:26;99305.19;;;7.00;99.51
4528;BME280;62320;51.520;6.818;2022-11-21T16:00:27;99285.59;;;6.91;99.82
4528;BME280;62320;51.520;6.818;2022-11-21T16:10:29;99281.38;;;6.84;99.84
4528;BME280;62320;51.520;6.818;2022-11-21T16:20:30;99284.03;;;6.77;99.11
4528;BME280;62320;51.520;6.818;2022-11-21T16:30:31;99277.22;;;6.68;99.46
4528;BME280;62320;51.520;6.818;2022-11-21T16:40:33;99249.03;;;6.62;99.04
4528;BME280;62320;51.520;6.818;2022-11-21T16:50:34;99219.03;;;6.66;98.67
4528;BME280;62320;51.520;6.818;2022-11-21T17:00:36;99198.50;;;6.66;98.49
4528;BME280;62320;51.520;6.818;2022-11-21T17:10:37;99174.56;;;6.62;98.23
4528;BME280;62320;51.520;6.818;2022-11-21T17:20:38;99159.13;;;6.65;98.16
4528;BME280;62320;51.520;6.818;2022-11-21T17:30:40;99160.91;;;6.60;97.58
4528;BME280;62320;51.520;6.818;2022-11-21T17:40:44;99148.88;;;6.64;98.11
4528;BME280;62320;51.520;6.818;2022-11-21T17:50:45;99132.63;;;6.62;97.79
4528;BME280;62320;51.520;6.818;2022-11-21T18:00:52;99144.66;;;6.58;97.34
4528;BME280;62320;51.520;6.818;2022-11-21T18:10:54;99131.88;;;6.51;98.21
4528;BME280;62320;51.520;6.818;2022-11-21T18:21:07;99129.31;;;6.54;97.53
4528;BME280;62320;51.520;6.818;2022-11-21T18:31:13;99143.06;;;6.43;98.23
4528;BME280;62320;51.520;6.818;2022-11-21T18:41:23;99131.03;;;6.50;97.75
4528;BME280;62320;51.520;6.818;2022-11-21T18:51:27;99089.16;;;6.46;97.21
4528;BME280;62320;51.520;6.818;2022-11-21T19:01:29;99083.09;;;6.54;96.84
4528;BME280;62320;51.520;6.818;2022-11-21T19:11:32;99049.72;;;6.54;95.98
4528;BME280;62320;51.520;6.818;2022-11-21T19:21:38;99045.28;;;6.68;94.80
4528;BME280;62320;51.520;6.818;2022-11-21T19:31:39;99017.91;;;6.65;95.50
4528;BME280;62320;51.520;6.818;2022-11-21T19:41:49;99018.63;;;6.75;95.04
4528;BME280;62320;51.520;6.818;2022-11-21T19:51:50;99013.44;;;6.81;93.86
4528;BME280;62320;51.520;6.818;2022-11-21T20:01:52;98999.63;;;6.86;94.14
4528;BME280;62320;51.520;6.818;2022-11-21T20:11:53;98998.69;;;6.93;93.61
4528;BME280;62320;51.520;6.818;2022-11-21T20:21:55;98979.72;;;7.02;92.96
4528;BME280;62320;51.520;6.818;2022-11-21T20:31:56;98940.38;;;6.98;93.04
4528;BME280;62320;51.520;6.818;2022-11-21T20:41:59;98922.44;;;6.95;92.75
4528;BME280;62320;51.520;6.818;2022-11-21T20:52:01;98903.47;;;7.04;92.53
4528;BME280;62320;51.520;6.818;2022-11-21T21:02:23;98896.59;;;7.06;92.63
4528;BME280;62320;51.520;6.818;2022-11-21T21:12:24;98900.91;;;7.02;92.17
4528;BME280;62320;51.520;6.818;2022-11-21T21:22:28;98884.53;;;7.09;92.12
4528;BME280;62320;51.520;6.818;2022-11-21T21:32:30;98888.78;;;7.12;90.99
4528;BME280;62320;51.520;6.818;2022-11-21T21:42:31;98896.44;;;7.15;91.47
4528;BME280;62320;51.520;6.818;2022-11-21T21:52:32;98892.06;;;7.22;90.74
4528;BME280;62320;51.520;6.818;2022-11-21T22:02:35;98890.25;;;7.27;90.72
4528;BME280;62320;51.520;6.818;2022-11-21T22:12:37;98877.50;;;7.22;91.52
4528;BME280;62320;51.520;6.818;2022-11-21T22:22:44;98857.81;;;7.18;91.52
4528;BME280;62320;51.520;6.818;2022-11-21T22:32:45;98845.75;;;7.23;91.42
4528;BME280;62320;51.520;6.818;2022-11-21T22:42:47;98837.97;;;7.28;91.31
4528;BME280;62320;51.520;6.818;2022-11-21T22:52:48;98822.63;;;7.23;92.68
4528;BME280;62320;51.520;6.818;2022-11-21T23:02:49;98821.84;;;7.18;94.40
4528;BME280;62320;51.520;6.818;2022-11-21T23:12:51;98816.88;;;7.09;97.01
4528;BME280;62320;51.520;6.818;2022-11-21T23:22:55;98803.28;;;7.02;97.87
4528;BME280;62320;51.520;6.818;2022-11-21T23:32:56;98797.28;;;7.02;97.71
4528;BME280;62320;51.520;6.818;2022-11-21T23:42:57;98796.56;;;6.95;98.08
4528;BME280;62320;51.520;6.818;2022-11-21T23:52:59;98766.63;;;6.93;98.40
